createdAt,value
2018-09-17T00:02:22.684Z,90.70
2018-09-17T00:04:51.330Z,90.80
2018-09-17T00:07:19.911Z,90.80
2018-09-17T00:09:48.571Z,90.90
2018-09-17T00:12:17.168Z,90.80
2018-09-17T00:14:45.848Z,90.80
2018-09-17T00:17:14.548Z,90.80
2018-09-17T00:19:43.178Z,90.80
2018-09-17T00:22:11.854Z,90.90
2018-09-17T00:24:40.538Z,90.80
2018-09-17T00:27:09.155Z,90.80
2018-09-17T00:29:37.891Z,90.80
2018-09-17T00:32:07.321Z,90.70
2018-09-17T00:34:35.951Z,90.90
2018-09-17T00:37:04.647Z,90.90
2018-09-17T00:39:33.290Z,90.80
2018-09-17T00:42:01.948Z,90.80
2018-09-17T00:44:30.627Z,90.90
2018-09-17T00:46:59.274Z,90.90
2018-09-17T00:49:27.926Z,90.80
2018-09-17T00:51:56.607Z,90.80
2018-09-17T00:54:25.287Z,90.80
2018-09-17T00:56:53.862Z,90.90
2018-09-17T00:59:22.507Z,90.80
2018-09-17T01:01:51.168Z,90.90
2018-09-17T01:04:19.823Z,90.70
2018-09-17T01:06:48.499Z,90.70
2018-09-17T01:09:22.399Z,90.70
2018-09-17T01:11:51.171Z,91.00
2018-09-17T01:14:19.811Z,90.40
2018-09-17T01:16:48.460Z,90.60
2018-09-17T01:19:17.111Z,91.20
2018-09-17T01:21:45.811Z,91.60
2018-09-17T01:24:14.447Z,91.40
2018-09-17T01:26:43.618Z,91.40
2018-09-17T01:29:12.255Z,91.50
2018-09-17T01:31:40.855Z,91.50
2018-09-17T01:34:09.551Z,91.50
2018-09-17T01:36:38.205Z,91.50
2018-09-17T01:39:09.026Z,91.40
2018-09-17T01:41:37.658Z,91.40
2018-09-17T01:44:06.547Z,91.40
2018-09-17T01:46:35.315Z,91.30
2018-09-17T01:49:03.973Z,91.30
2018-09-17T01:51:32.617Z,91.40
2018-09-17T01:54:01.247Z,91.50
2018-09-17T01:56:29.977Z,91.60
2018-09-17T01:58:58.588Z,92.00
2018-09-17T02:01:27.207Z,91.70
2018-09-17T02:03:55.863Z,91.60
2018-09-17T02:06:24.496Z,91.60
2018-09-17T02:08:53.112Z,91.50
2018-09-17T02:11:21.809Z,91.50
2018-09-17T02:13:50.532Z,91.70
2018-09-17T02:16:19.150Z,91.70
2018-09-17T02:18:47.952Z,91.80
2018-09-17T02:21:16.580Z,91.70
2018-09-17T02:23:45.262Z,91.60
2018-09-17T02:26:13.936Z,91.70
2018-09-17T02:28:42.651Z,91.70
2018-09-17T02:31:11.290Z,91.50
2018-09-17T02:33:39.917Z,91.50
2018-09-17T02:36:08.603Z,91.50
2018-09-17T02:38:37.275Z,91.50
2018-09-17T02:41:06.239Z,91.60
2018-09-17T02:43:34.875Z,91.70
2018-09-17T02:46:03.516Z,91.80
2018-09-17T02:48:32.221Z,91.70
2018-09-17T02:51:00.842Z,91.70
2018-09-17T02:53:29.572Z,91.60
2018-09-17T02:55:58.226Z,91.70
2018-09-17T02:58:26.983Z,91.60
2018-09-17T03:00:55.678Z,91.70
2018-09-17T03:03:24.296Z,91.70
2018-09-17T03:05:54.154Z,91.70
2018-09-17T03:08:22.802Z,91.70
2018-09-17T03:10:51.487Z,91.70
2018-09-17T03:13:20.188Z,91.60
2018-09-17T03:15:55.026Z,91.60
2018-09-17T03:18:36.120Z,91.70
2018-09-17T03:21:06.632Z,91.60
2018-09-17T03:23:36.630Z,91.60
2018-09-17T03:26:05.434Z,91.70
2018-09-17T03:28:34.107Z,91.80
2018-09-17T03:31:02.735Z,91.60
2018-09-17T03:33:31.429Z,91.70
2018-09-17T03:36:00.084Z,91.60
2018-09-17T03:38:36.299Z,91.70
2018-09-17T03:41:06.059Z,91.70
2018-09-17T03:43:35.552Z,91.60
2018-09-17T03:46:04.200Z,91.60
2018-09-17T03:48:33.991Z,91.60
2018-09-17T03:51:03.328Z,91.60
2018-09-17T03:53:32.331Z,91.50
2018-09-17T03:56:01.096Z,91.60
2018-09-17T03:58:30.144Z,91.50
2018-09-17T04:00:59.411Z,91.50
2018-09-17T04:03:28.063Z,91.60
2018-09-17T04:05:56.791Z,91.60
2018-09-17T04:08:25.445Z,91.50
2018-09-17T04:10:54.128Z,91.60
2018-09-17T04:13:22.761Z,91.60
2018-09-17T04:15:51.386Z,91.60
2018-09-17T04:18:20.031Z,91.80
2018-09-17T04:20:48.610Z,91.70
2018-09-17T04:23:37.595Z,91.60
2018-09-17T04:26:07.768Z,91.60
2018-09-17T04:28:37.007Z,91.60
2018-09-17T04:31:05.918Z,91.60
2018-09-17T04:33:38.623Z,91.50
2018-09-17T04:36:07.690Z,91.40
2018-09-17T04:38:36.355Z,91.50
2018-09-17T04:41:05.135Z,91.40
2018-09-17T04:43:33.722Z,91.40
2018-09-17T04:46:02.395Z,91.30
2018-09-17T04:48:31.252Z,91.50
2018-09-17T04:50:59.934Z,91.60
2018-09-17T04:53:28.610Z,91.70
2018-09-17T04:55:57.269Z,91.70
2018-09-17T04:58:25.920Z,91.70
2018-09-17T05:00:54.539Z,91.70
2018-09-17T05:03:23.327Z,91.80
2018-09-17T05:05:52.042Z,91.80
2018-09-17T05:08:20.687Z,91.70
2018-09-17T05:10:49.252Z,91.80
2018-09-17T05:13:17.981Z,91.80
2018-09-17T05:15:46.503Z,92.10
2018-09-17T05:18:15.120Z,92.30
2018-09-17T05:20:43.826Z,92.20
2018-09-17T05:23:12.427Z,92.10
2018-09-17T05:25:41.108Z,92.10
2018-09-17T05:28:09.806Z,92.10
2018-09-17T05:30:38.455Z,92.00
2018-09-17T05:33:07.139Z,92.20
2018-09-17T05:35:35.860Z,91.90
2018-09-17T05:38:04.551Z,92.30
2018-09-17T05:40:33.138Z,91.80
2018-09-17T05:43:02.135Z,91.60
2018-09-17T05:45:30.727Z,91.40
2018-09-17T05:47:59.367Z,91.40
2018-09-17T05:50:27.995Z,91.30
2018-09-17T05:52:56.586Z,91.20
2018-09-17T05:55:25.219Z,91.60
2018-09-17T05:57:53.872Z,91.70
2018-09-17T06:00:22.567Z,91.50
2018-09-17T06:02:51.292Z,91.40
2018-09-17T06:05:19.897Z,91.60
2018-09-17T06:07:48.548Z,91.60
2018-09-17T06:10:17.612Z,91.50
2018-09-17T06:12:47.591Z,91.60
2018-09-17T06:15:16.401Z,91.60
2018-09-17T06:17:45.127Z,91.50
2018-09-17T06:20:13.787Z,91.50
2018-09-17T06:22:42.436Z,91.50
2018-09-17T06:25:11.064Z,91.20
2018-09-17T06:27:39.692Z,91.30
2018-09-17T06:30:08.435Z,91.50
2018-09-17T06:32:37.103Z,91.40
2018-09-17T06:35:05.812Z,91.50
2018-09-17T06:37:34.466Z,91.70
2018-09-17T06:40:03.091Z,91.80
2018-09-17T06:42:31.950Z,91.60
2018-09-17T06:45:00.612Z,91.70
2018-09-17T06:47:29.226Z,91.30
2018-09-17T06:49:57.907Z,91.40
2018-09-17T06:52:26.564Z,91.40
2018-09-17T06:54:55.204Z,91.10
2018-09-17T06:57:23.841Z,90.80
2018-09-17T06:59:52.496Z,90.90
2018-09-17T07:02:21.164Z,90.90
2018-09-17T07:04:50.189Z,90.60
2018-09-17T07:07:18.820Z,90.50
2018-09-17T07:09:47.443Z,90.20
2018-09-17T07:12:16.111Z,89.30
2018-09-17T07:14:44.713Z,88.60
2018-09-17T07:17:13.387Z,87.30
2018-09-17T07:19:42.010Z,86.90
2018-09-17T07:22:10.611Z,86.40
2018-09-17T07:24:39.327Z,85.90
2018-09-17T07:27:08.004Z,84.50
2018-09-17T07:29:36.647Z,84.50
2018-09-17T07:32:05.390Z,82.90
2018-09-17T07:34:34.076Z,82.70
2018-09-17T07:37:02.756Z,81.10
2018-09-17T07:39:31.423Z,80.60
2018-09-17T07:42:00.080Z,80.30
2018-09-17T07:44:28.718Z,80.60
2018-09-17T07:46:57.370Z,79.70
2018-09-17T07:49:26.072Z,79.10
2018-09-17T07:51:54.698Z,78.40
2018-09-17T07:54:23.335Z,78.60
2018-09-17T07:56:51.996Z,78.90
2018-09-17T07:59:20.655Z,77.20
2018-09-17T08:01:49.398Z,77.80
2018-09-17T08:04:18.044Z,76.40
2018-09-17T08:06:47.027Z,78.00
2018-09-17T08:09:15.664Z,75.20
2018-09-17T08:11:44.667Z,76.40
2018-09-17T08:14:14.686Z,75.70
2018-09-17T08:16:43.332Z,75.70
2018-09-17T08:19:11.976Z,76.00
2018-09-17T08:21:40.641Z,76.30
2018-09-17T08:24:09.283Z,76.00
2018-09-17T08:26:37.923Z,74.40
2018-09-17T08:29:06.886Z,74.10
2018-09-17T08:31:35.556Z,74.80
2018-09-17T08:34:04.268Z,75.70
2018-09-17T08:36:32.933Z,73.30
2018-09-17T08:39:01.571Z,74.10
2018-09-17T08:41:30.231Z,73.30
2018-09-17T08:43:58.848Z,74.70
2018-09-17T08:46:27.542Z,73.70
2018-09-17T08:48:56.183Z,73.60
2018-09-17T08:51:24.830Z,71.40
2018-09-17T08:53:53.506Z,70.70
2018-09-17T08:56:26.276Z,72.10
2018-09-17T08:58:59.747Z,70.90
2018-09-17T09:01:29.367Z,69.90
2018-09-17T09:04:03.394Z,71.10
2018-09-17T09:06:37.218Z,71.30
2018-09-17T09:09:08.799Z,70.90
2018-09-17T09:11:42.751Z,70.50
2018-09-17T09:14:16.739Z,69.80
2018-09-17T09:16:45.340Z,69.10
2018-09-17T09:19:13.935Z,68.10
2018-09-17T09:21:42.661Z,67.80
2018-09-17T09:24:11.332Z,67.90
2018-09-17T09:26:39.979Z,66.50
2018-09-17T09:29:08.642Z,65.90
2018-09-17T09:31:37.343Z,65.30
2018-09-17T09:34:06.015Z,67.00
2018-09-17T09:36:34.656Z,65.70
2018-09-17T09:39:03.426Z,64.00
2018-09-17T09:41:32.067Z,66.30
2018-09-17T09:44:00.686Z,66.80
2018-09-17T09:46:29.391Z,63.40
2018-09-17T09:48:58.031Z,62.40
2018-09-17T09:51:26.620Z,62.10
2018-09-17T09:53:55.266Z,61.80
2018-09-17T09:56:24.017Z,60.60
2018-09-17T09:58:52.724Z,61.30
2018-09-17T10:01:27.352Z,60.70
2018-09-17T10:04:01.236Z,58.90
2018-09-17T10:06:29.834Z,60.00
2018-09-17T10:09:03.632Z,60.50
2018-09-17T10:11:37.457Z,59.80
2018-09-17T10:14:11.415Z,59.70
2018-09-17T10:16:44.258Z,59.20
2018-09-17T10:19:18.272Z,61.30
2018-09-17T10:21:47.014Z,58.10
2018-09-17T10:24:15.651Z,58.30
2018-09-17T10:26:44.291Z,57.30
2018-09-17T10:29:12.950Z,56.80
2018-09-17T10:31:41.667Z,56.50
2018-09-17T10:34:10.294Z,55.30
2018-09-17T10:36:38.943Z,55.90
2018-09-17T10:39:10.388Z,55.80
2018-09-17T10:41:39.079Z,56.20
2018-09-17T10:44:07.811Z,56.10
2018-09-17T10:46:37.136Z,54.60
2018-09-17T10:49:06.030Z,55.40
2018-09-17T10:51:34.688Z,54.80
2018-09-17T10:54:03.327Z,53.30
2018-09-17T10:56:32.035Z,52.40
2018-09-17T10:59:00.662Z,53.10
2018-09-17T11:01:29.263Z,52.70
2018-09-17T11:03:57.927Z,52.00
2018-09-17T11:06:26.553Z,52.40
2018-09-17T11:08:55.163Z,53.00
2018-09-17T11:11:23.991Z,51.90
2018-09-17T11:13:52.683Z,53.60
2018-09-17T11:16:21.296Z,53.40
2018-09-17T11:18:50.063Z,54.00
2018-09-17T11:21:18.747Z,54.00
2018-09-17T11:23:47.702Z,51.20
2018-09-17T11:26:16.344Z,52.60
2018-09-17T11:28:44.963Z,51.40
2018-09-17T11:31:13.603Z,52.90
2018-09-17T11:33:42.562Z,53.30
2018-09-17T11:36:11.239Z,52.40
2018-09-17T11:38:39.896Z,54.40
2018-09-17T11:41:08.570Z,52.20
2018-09-17T11:43:37.426Z,52.60
2018-09-17T11:46:06.092Z,50.50
2018-09-17T11:48:34.736Z,52.40
2018-09-17T11:51:03.743Z,51.60
2018-09-17T11:53:32.574Z,51.90
2018-09-17T11:56:01.235Z,49.70
2018-09-17T11:58:29.898Z,52.50
2018-09-17T12:01:03.768Z,51.40
2018-09-17T12:03:37.604Z,49.30
2018-09-17T12:06:06.291Z,48.80
2018-09-17T12:08:34.919Z,50.80
2018-09-17T12:11:03.631Z,50.50
2018-09-17T12:13:32.262Z,48.90
2018-09-17T12:16:00.955Z,49.10
2018-09-17T12:18:29.628Z,47.80
2018-09-17T12:20:58.236Z,49.80
2018-09-17T12:23:26.875Z,48.20
2018-09-17T12:25:55.604Z,48.50
2018-09-17T12:28:24.298Z,46.60
2018-09-17T12:30:53.011Z,47.60
2018-09-17T12:33:21.722Z,49.70
2018-09-17T12:35:50.378Z,48.20
2018-09-17T12:38:18.977Z,49.50
2018-09-17T12:40:47.588Z,48.00
2018-09-17T12:43:16.271Z,47.70
2018-09-17T12:45:44.940Z,47.60
2018-09-17T12:48:13.658Z,47.40
2018-09-17T12:50:42.305Z,50.60
2018-09-17T12:53:11.035Z,48.90
2018-09-17T12:55:39.642Z,48.80
2018-09-17T12:58:08.342Z,47.70
2018-09-17T13:00:36.953Z,47.20
2018-09-17T13:03:05.754Z,48.30
2018-09-17T13:05:34.410Z,45.80
2018-09-17T13:08:03.066Z,51.00
2018-09-17T13:10:31.675Z,45.80
2018-09-17T13:13:00.366Z,45.90
2018-09-17T13:15:29.036Z,47.40
2018-09-17T13:17:57.659Z,45.70
2018-09-17T13:20:26.264Z,46.40
2018-09-17T13:22:55.083Z,46.50
2018-09-17T13:25:23.660Z,43.30
2018-09-17T13:27:55.160Z,44.90
2018-09-17T13:30:23.786Z,44.50
2018-09-17T13:32:52.691Z,44.70
2018-09-17T13:35:21.306Z,45.30
2018-09-17T13:37:49.904Z,49.00
2018-09-17T13:40:18.595Z,44.80
2018-09-17T13:42:47.256Z,43.40
2018-09-17T13:45:16.035Z,46.80
2018-09-17T13:47:44.673Z,48.30
2018-09-17T13:50:13.339Z,47.80
2018-09-17T13:52:43.851Z,47.30
2018-09-17T13:55:12.542Z,43.30
2018-09-17T13:57:41.209Z,44.10
2018-09-17T14:00:09.831Z,43.80
2018-09-17T14:02:38.549Z,41.00
2018-09-17T14:05:07.251Z,41.40
2018-09-17T14:07:36.023Z,41.30
2018-09-17T14:10:04.958Z,41.70
2018-09-17T14:12:33.588Z,41.30
2018-09-17T14:15:02.311Z,43.60
2018-09-17T14:17:31.170Z,41.30
2018-09-17T14:19:59.964Z,45.40
2018-09-17T14:22:28.724Z,43.20
2018-09-17T14:24:57.379Z,45.60
2018-09-17T14:27:26.056Z,47.00
2018-09-17T14:29:54.762Z,42.90
2018-09-17T14:32:28.845Z,49.80
2018-09-17T14:34:58.384Z,50.90
2018-09-17T14:37:27.142Z,50.80
2018-09-17T14:39:55.830Z,47.40
2018-09-17T14:42:28.781Z,52.90
2018-09-17T14:44:57.690Z,51.60
2018-09-17T14:47:26.278Z,54.30
2018-09-17T14:49:55.143Z,49.20
2018-09-17T14:52:23.915Z,48.00
2018-09-17T14:54:52.426Z,48.90
2018-09-17T14:57:21.126Z,45.70
2018-09-17T14:59:49.792Z,49.70
2018-09-17T15:02:18.443Z,50.60
2018-09-17T15:04:47.084Z,51.50
2018-09-17T15:07:15.759Z,46.50
2018-09-17T15:09:44.394Z,50.00
2018-09-17T15:12:13.069Z,49.70
2018-09-17T15:14:41.761Z,46.90
2018-09-17T15:17:10.698Z,47.80
2018-09-17T15:19:39.375Z,49.00
2018-09-17T15:22:08.080Z,47.10
2018-09-17T15:24:36.666Z,52.00
2018-09-17T15:27:05.380Z,53.10
2018-09-17T15:29:33.970Z,52.70
2018-09-17T15:32:02.650Z,53.60
2018-09-17T15:34:31.342Z,52.10
2018-09-17T15:36:59.873Z,51.60
2018-09-17T15:39:28.528Z,53.20
2018-09-17T15:41:57.180Z,46.80
2018-09-17T15:44:25.947Z,51.60
2018-09-17T15:46:54.572Z,53.50
2018-09-17T15:49:23.106Z,47.60
2018-09-17T15:51:51.799Z,50.90
2018-09-17T15:54:20.430Z,50.60
2018-09-17T15:56:49.169Z,49.60
2018-09-17T15:59:17.888Z,50.60
2018-09-17T16:01:46.735Z,51.40
2018-09-17T16:04:15.422Z,54.50
2018-09-17T16:06:44.031Z,51.90
2018-09-17T16:09:12.680Z,51.80
2018-09-17T16:11:41.351Z,50.80
2018-09-17T16:14:10.096Z,53.10
2018-09-17T16:16:38.691Z,54.80
2018-09-17T16:19:07.726Z,55.30
2018-09-17T16:21:36.327Z,53.50
2018-09-17T16:24:04.960Z,54.20
2018-09-17T16:26:33.655Z,55.70
2018-09-17T16:29:02.247Z,56.30
2018-09-17T16:31:30.927Z,57.30
2018-09-17T16:33:59.591Z,57.40
2018-09-17T16:36:28.259Z,57.20
2018-09-17T16:38:56.875Z,57.20
2018-09-17T16:41:25.575Z,58.30
2018-09-17T16:43:54.318Z,58.60
2018-09-17T16:46:23.004Z,59.60
2018-09-17T16:48:51.675Z,59.20
2018-09-17T16:51:20.285Z,59.10
2018-09-17T16:53:49.033Z,60.10
2018-09-17T16:56:17.597Z,60.80
2018-09-17T16:58:46.390Z,60.60
2018-09-17T17:01:15.003Z,61.90
2018-09-17T17:03:43.655Z,62.20
2018-09-17T17:06:12.300Z,62.50
2018-09-17T17:08:40.936Z,64.50
2018-09-17T17:11:09.635Z,65.40
2018-09-17T17:13:38.187Z,66.00
2018-09-17T17:16:06.917Z,66.20
2018-09-17T17:18:35.510Z,66.20
2018-09-17T17:21:04.159Z,66.50
2018-09-17T17:23:32.782Z,66.90
2018-09-17T17:26:01.435Z,67.50
2018-09-17T17:28:30.132Z,68.30
2018-09-17T17:30:58.771Z,67.80
2018-09-17T17:33:27.455Z,67.90
2018-09-17T17:35:56.119Z,68.80
2018-09-17T17:38:24.774Z,69.20
2018-09-17T17:40:53.377Z,69.20
2018-09-17T17:43:22.079Z,69.50
2018-09-17T17:45:50.781Z,69.70
2018-09-17T17:48:19.372Z,69.60
2018-09-17T17:50:48.043Z,70.10
2018-09-17T17:53:16.782Z,71.10
2018-09-17T17:55:47.015Z,71.60
2018-09-17T17:58:15.722Z,72.10
2018-09-17T18:00:44.392Z,72.10
2018-09-17T18:03:29.164Z,71.60
2018-09-17T18:05:57.734Z,71.90
2018-09-17T18:08:26.599Z,72.40
2018-09-17T18:10:55.206Z,73.00
2018-09-17T18:13:23.889Z,73.40
2018-09-17T18:15:52.611Z,73.90
2018-09-17T18:18:21.199Z,74.20
2018-09-17T18:20:49.852Z,74.20
2018-09-17T18:23:18.507Z,74.20
2018-09-17T18:25:47.159Z,74.80
2018-09-17T18:28:15.778Z,75.00
2018-09-17T18:30:44.440Z,75.10
2018-09-17T18:33:13.170Z,75.20
2018-09-17T18:35:41.808Z,75.30
2018-09-17T18:38:10.923Z,75.90
2018-09-17T18:40:39.570Z,76.20
2018-09-17T18:43:08.275Z,76.20
2018-09-17T18:45:36.904Z,76.70
2018-09-17T18:48:05.556Z,77.00
2018-09-17T18:50:34.203Z,77.50
2018-09-17T18:53:02.884Z,78.50
2018-09-17T18:55:31.479Z,79.00
2018-09-17T18:58:00.138Z,79.60
2018-09-17T19:00:28.804Z,79.80
2018-09-17T19:02:57.533Z,80.30
2018-09-17T19:05:26.114Z,80.70
2018-09-17T19:07:54.758Z,80.80
2018-09-17T19:10:23.451Z,81.00
2018-09-17T19:12:52.048Z,81.70
2018-09-17T19:15:26.767Z,80.90
2018-09-17T19:17:59.724Z,81.00
2018-09-17T19:20:28.348Z,81.30
2018-09-17T19:23:02.222Z,81.80
2018-09-17T19:25:30.887Z,81.90
2018-09-17T19:28:05.167Z,82.10
2018-09-17T19:30:33.819Z,82.30
2018-09-17T19:33:02.400Z,82.60
2018-09-17T19:35:31.083Z,82.80
2018-09-17T19:38:05.007Z,82.90
2018-09-17T19:40:33.705Z,83.00
2018-09-17T19:43:02.403Z,83.20
2018-09-17T19:45:36.379Z,83.30
2018-09-17T19:48:04.942Z,83.80
2018-09-17T19:50:38.854Z,84.00
2018-09-17T19:53:07.487Z,84.40
2018-09-17T19:55:36.178Z,85.00
2018-09-17T19:58:10.195Z,85.20
2018-09-17T20:00:39.005Z,85.40
2018-09-17T20:03:07.494Z,85.30
2018-09-17T20:05:41.538Z,85.30
2018-09-17T20:08:10.131Z,85.10
2018-09-17T20:10:39.018Z,85.20
2018-09-17T20:13:07.746Z,85.30
2018-09-17T20:15:36.482Z,85.30
2018-09-17T20:18:05.088Z,85.50
2018-09-17T20:20:33.731Z,85.90
2018-09-17T20:23:02.510Z,85.50
2018-09-17T20:25:31.199Z,85.50
2018-09-17T20:27:59.783Z,86.00
2018-09-17T20:30:28.415Z,86.40
2018-09-17T20:32:57.120Z,87.00
2018-09-17T20:35:25.739Z,86.40
2018-09-17T20:37:54.386Z,86.60
2018-09-17T20:40:23.023Z,86.50
2018-09-17T20:42:51.626Z,86.40
2018-09-17T20:45:20.303Z,86.40
2018-09-17T20:47:48.948Z,86.60
2018-09-17T20:50:17.624Z,86.50
2018-09-17T20:52:46.227Z,86.60
2018-09-17T20:55:14.892Z,86.80
2018-09-17T20:57:43.561Z,86.90
2018-09-17T21:00:12.383Z,87.00
2018-09-17T21:02:41.012Z,87.00
2018-09-17T21:05:09.631Z,87.20
2018-09-17T21:07:38.299Z,87.60
2018-09-17T21:10:06.967Z,87.90
2018-09-17T21:12:35.617Z,87.90
2018-09-17T21:15:04.308Z,88.20
2018-09-17T21:17:32.935Z,88.40
2018-09-17T21:20:01.623Z,88.60
2018-09-17T21:22:30.264Z,88.80
2018-09-17T21:24:59.003Z,89.00
2018-09-17T21:27:27.583Z,89.20
2018-09-17T21:29:56.259Z,89.30
2018-09-17T21:32:24.924Z,89.30
2018-09-17T21:34:53.867Z,89.10
2018-09-17T21:37:22.860Z,89.10
2018-09-17T21:39:51.510Z,89.00
2018-09-17T21:42:20.121Z,89.00
2018-09-17T21:44:48.832Z,88.70
2018-09-17T21:47:17.479Z,88.80
2018-09-17T21:49:46.137Z,88.50
2018-09-17T21:52:14.862Z,88.40
2018-09-17T21:54:43.570Z,88.40
2018-09-17T21:57:12.178Z,87.90
2018-09-17T21:59:40.801Z,87.90
2018-09-17T22:02:09.539Z,87.90
2018-09-17T22:04:38.188Z,88.00
2018-09-17T22:07:06.831Z,88.00
2018-09-17T22:09:35.483Z,87.90
2018-09-17T22:12:04.135Z,88.00
2018-09-17T22:14:32.807Z,87.90
2018-09-17T22:17:01.475Z,87.90
2018-09-17T22:19:30.099Z,88.10
2018-09-17T22:21:58.781Z,88.00
2018-09-17T22:24:27.426Z,88.40
2018-09-17T22:26:56.088Z,88.70
2018-09-17T22:29:24.767Z,89.00
2018-09-17T22:31:53.382Z,89.20
2018-09-17T22:34:22.172Z,89.70
2018-09-17T22:36:50.804Z,89.90
2018-09-17T22:39:19.467Z,89.80
2018-09-17T22:41:48.112Z,90.10
2018-09-17T22:44:16.756Z,90.20
2018-09-17T22:46:45.509Z,90.20
2018-09-17T22:49:14.164Z,90.30
2018-09-17T22:51:42.800Z,90.40
2018-09-17T22:54:11.523Z,90.50
2018-09-17T22:56:40.160Z,90.60
2018-09-17T22:59:08.840Z,90.60
2018-09-17T23:01:37.511Z,90.50
2018-09-17T23:04:06.201Z,90.50
2018-09-17T23:06:34.838Z,90.40
2018-09-17T23:09:03.807Z,90.40
2018-09-17T23:11:32.411Z,90.40
2018-09-17T23:14:01.040Z,90.50
2018-09-17T23:16:29.692Z,90.50
2018-09-17T23:18:58.324Z,90.40
2018-09-17T23:21:26.935Z,90.30
2018-09-17T23:23:55.571Z,90.20
2018-09-17T23:26:24.232Z,90.10
2018-09-17T23:28:52.884Z,90.10
2018-09-17T23:31:21.575Z,90.00
2018-09-17T23:33:50.246Z,90.00
2018-09-17T23:36:18.860Z,89.80
2018-09-17T23:38:47.510Z,89.50
2018-09-17T23:41:16.127Z,89.50
2018-09-17T23:43:44.892Z,89.50
2018-09-17T23:46:13.503Z,89.00
2018-09-17T23:48:42.203Z,89.10
2018-09-17T23:51:10.879Z,89.30
2018-09-17T23:53:39.555Z,89.30
2018-09-17T23:56:08.213Z,89.20
2018-09-17T23:58:36.831Z,89.30
